sensor_id;sensor_type;location;lat;lon;timestamp;pressure;altitude;pressure_sealevel;temperature;humidity
41862;BME280;27537;57.134;-2.136;2023-01-25T00:00:43;102151.88;;;8.53;100.00
41862;BME280;27537;57.134;-2.136;2023-01-25T00:03:10;102144.03;;;8.56;100.00
41862;BME280;27537;57.134;-2.136;2023-01-25T00:05:37;102157.84;;;8.73;100.00
41862;BME280;27537;57.134;-2.136;2023-01-25T00:08:04;102123.16;;;8.53;100.00
41862;BME280;27537;57.134;-2.136;2023-01-25T00:10:31;102101.53;;;8.32;100.00
41862;BME280;27537;57.134;-2.136;2023-01-25T00:12:57;102099.84;;;8.19;100.00
41862;BME280;27537;57.134;-2.136;2023-01-25T00:15:24;102115.44;;;8.33;100.00
41862;BME280;27537;57.134;-2.136;2023-01-25T00:17:51;102089.41;;;8.24;100.00
41862;BME280;27537;57.134;-2.136;2023-01-25T00:20:18;102066.84;;;8.12;100.00
41862;BME280;27537;57.134;-2.136;2023-01-25T00:22:44;102092.84;;;8.29;100.00
41862;BME280;27537;57.134;-2.136;2023-01-25T00:25:11;102095.41;;;8.33;100.00
41862;BME280;27537;57.134;-2.136;2023-01-25T00:27:38;102105.00;;;8.28;100.00
41862;BME280;27537;57.134;-2.136;2023-01-25T00:30:06;102137.13;;;8.47;100.00
41862;BME280;27537;57.134;-2.136;2023-01-25T00:32:48;102142.34;;;8.49;100.00
41862;BME280;27537;57.134;-2.136;2023-01-25T00:35:19;102083.25;;;8.32;100.00
41862;BME280;27537;57.134;-2.136;2023-01-25T00:37:47;102061.56;;;8.26;100.00
41862;BME280;27537;57.134;-2.136;2023-01-25T00:40:17;102118.69;;;8.72;100.00
41862;BME280;27537;57.134;-2.136;2023-01-25T00:42:44;102129.94;;;8.80;100.00
41862;BME280;27537;57.134;-2.136;2023-01-25T00:45:11;102093.34;;;8.82;100.00
41862;BME280;27537;57.134;-2.136;2023-01-25T00:47:38;102114.06;;;9.03;100.00
41862;BME280;27537;57.134;-2.136;2023-01-25T00:50:06;102082.88;;;8.85;100.00
41862;BME280;27537;57.134;-2.136;2023-01-25T00:52:33;102090.81;;;8.71;100.00
41862;BME280;27537;57.134;-2.136;2023-01-25T00:55:00;102069.06;;;8.72;100.00
41862;BME280;27537;57.134;-2.136;2023-01-25T00:57:27;102108.03;;;8.98;100.00
41862;BME280;27537;57.134;-2.136;2023-01-25T00:59:54;102099.38;;;8.91;100.00
41862;BME280;27537;57.134;-2.136;2023-01-25T01:02:21;102056.97;;;8.62;100.00
41862;BME280;27537;57.134;-2.136;2023-01-25T01:04:47;102090.69;;;8.86;100.00
41862;BME280;27537;57.134;-2.136;2023-01-25T01:07:14;102094.16;;;8.90;100.00
41862;BME280;27537;57.134;-2.136;2023-01-25T01:09:41;102112.31;;;9.05;100.00
41862;BME280;27537;57.134;-2.136;2023-01-25T01:12:08;102090.63;;;8.94;100.00
41862;BME280;27537;57.134;-2.136;2023-01-25T01:14:35;102077.66;;;8.85;100.00
41862;BME280;27537;57.134;-2.136;2023-01-25T01:17:02;102066.38;;;8.80;100.00
41862;BME280;27537;57.134;-2.136;2023-01-25T01:19:28;102106.09;;;9.17;100.00
41862;BME280;27537;57.134;-2.136;2023-01-25T01:21:56;102102.69;;;9.07;100.00
41862;BME280;27537;57.134;-2.136;2023-01-25T01:24:23;102118.28;;;9.15;100.00
41862;BME280;27537;57.134;-2.136;2023-01-25T01:26:49;102053.28;;;8.83;100.00
41862;BME280;27537;57.134;-2.136;2023-01-25T01:29:16;102081.16;;;8.85;100.00
41862;BME280;27537;57.134;-2.136;2023-01-25T01:31:43;102119.19;;;9.17;100.00
41862;BME280;27537;57.134;-2.136;2023-01-25T01:34:12;102080.34;;;8.74;100.00
41862;BME280;27537;57.134;-2.136;2023-01-25T01:36:40;102087.34;;;8.73;100.00
41862;BME280;27537;57.134;-2.136;2023-01-25T01:39:07;102060.47;;;8.58;100.00
41862;BME280;27537;57.134;-2.136;2023-01-25T01:41:35;102129.66;;;9.11;100.00
41862;BME280;27537;57.134;-2.136;2023-01-25T01:44:03;102130.53;;;9.11;100.00
41862;BME280;27537;57.134;-2.136;2023-01-25T01:46:37;102065.53;;;8.78;100.00
41862;BME280;27537;57.134;-2.136;2023-01-25T01:49:10;102118.28;;;9.15;100.00
41862;BME280;27537;57.134;-2.136;2023-01-25T01:54:22;102108.06;;;8.90;100.00
41862;BME280;27537;57.134;-2.136;2023-01-25T01:56:56;102094.97;;;8.97;100.00
41862;BME280;27537;57.134;-2.136;2023-01-25T01:59:30;102097.50;;;9.06;100.00
41862;BME280;27537;57.134;-2.136;2023-01-25T02:01:58;102111.38;;;9.12;100.00
41862;BME280;27537;57.134;-2.136;2023-01-25T02:04:26;102118.47;;;9.00;100.00
41862;BME280;27537;57.134;-2.136;2023-01-25T02:06:59;102104.69;;;8.79;100.00
41862;BME280;27537;57.134;-2.136;2023-01-25T02:09:30;102126.31;;;8.95;100.00
41862;BME280;27537;57.134;-2.136;2023-01-25T02:11:58;102135.91;;;8.95;100.00
41862;BME280;27537;57.134;-2.136;2023-01-25T02:14:27;102097.88;;;8.60;100.00
41862;BME280;27537;57.134;-2.136;2023-01-25T02:16:55;102114.19;;;8.91;100.00
41862;BME280;27537;57.134;-2.136;2023-01-25T02:22:10;102108.91;;;8.94;100.00
41862;BME280;27537;57.134;-2.136;2023-01-25T02:24:42;102073.34;;;8.81;100.00
41862;BME280;27537;57.134;-2.136;2023-01-25T02:27:11;102101.88;;;9.02;100.00
41862;BME280;27537;57.134;-2.136;2023-01-25T02:29:38;102042.94;;;8.77;100.00
41862;BME280;27537;57.134;-2.136;2023-01-25T02:32:05;102095.72;;;9.09;100.00
41862;BME280;27537;57.134;-2.136;2023-01-25T02:34:32;102044.66;;;8.76;100.00
41862;BME280;27537;57.134;-2.136;2023-01-25T02:37:01;102059.38;;;8.85;100.00
41862;BME280;27537;57.134;-2.136;2023-01-25T02:39:28;102079.28;;;9.00;100.00
41862;BME280;27537;57.134;-2.136;2023-01-25T02:41:55;102024.69;;;8.69;100.00
41862;BME280;27537;57.134;-2.136;2023-01-25T02:44:28;102080.00;;;9.16;100.00
41862;BME280;27537;57.134;-2.136;2023-01-25T02:46:59;102016.75;;;8.80;100.00
41862;BME280;27537;57.134;-2.136;2023-01-25T02:49:26;102021.97;;;8.83;100.00
41862;BME280;27537;57.134;-2.136;2023-01-25T02:51:54;102059.94;;;9.15;100.00
41862;BME280;27537;57.134;-2.136;2023-01-25T02:54:24;102052.13;;;9.11;100.00
41862;BME280;27537;57.134;-2.136;2023-01-25T02:56:51;102022.75;;;8.92;100.00
41862;BME280;27537;57.134;-2.136;2023-01-25T02:59:18;102056.41;;;9.20;100.00
41862;BME280;27537;57.134;-2.136;2023-01-25T03:01:45;102029.53;;;9.07;100.00
41862;BME280;27537;57.134;-2.136;2023-01-25T03:04:12;102041.50;;;9.28;100.00
41862;BME280;27537;57.134;-2.136;2023-01-25T03:06:39;102038.81;;;9.35;100.00
41862;BME280;27537;57.134;-2.136;2023-01-25T03:09:09;102008.59;;;9.12;100.00
41862;BME280;27537;57.134;-2.136;2023-01-25T03:11:36;102013.78;;;9.13;100.00
41862;BME280;27537;57.134;-2.136;2023-01-25T03:14:02;102024.22;;;9.15;100.00
41862;BME280;27537;57.134;-2.136;2023-01-25T03:16:30;102031.88;;;9.32;100.00
41862;BME280;27537;57.134;-2.136;2023-01-25T03:18:57;101992.00;;;9.18;100.00
41862;BME280;27537;57.134;-2.136;2023-01-25T03:21:23;102012.66;;;9.36;100.00
41862;BME280;27537;57.134;-2.136;2023-01-25T03:23:58;101969.38;;;9.13;100.00
41862;BME280;27537;57.134;-2.136;2023-01-25T03:26:28;102027.28;;;9.53;100.00
41862;BME280;27537;57.134;-2.136;2023-01-25T03:28:55;101991.81;;;9.31;100.00
41862;BME280;27537;57.134;-2.136;2023-01-25T03:31:22;102023.75;;;9.57;100.00
41862;BME280;27537;57.134;-2.136;2023-01-25T03:33:49;102015.22;;;9.42;100.00
41862;BME280;27537;57.134;-2.136;2023-01-25T03:36:15;101932.91;;;9.06;100.00
41862;BME280;27537;57.134;-2.136;2023-01-25T03:38:42;101967.53;;;9.22;100.00
41862;BME280;27537;57.134;-2.136;2023-01-25T03:41:09;101945.06;;;9.08;100.00
41862;BME280;27537;57.134;-2.136;2023-01-25T03:43:38;102004.66;;;9.50;100.00
41862;BME280;27537;57.134;-2.136;2023-01-25T03:46:05;101986.34;;;9.50;100.00
41862;BME280;27537;57.134;-2.136;2023-01-25T03:48:32;101990.69;;;9.53;100.00
41862;BME280;27537;57.134;-2.136;2023-01-25T03:50:59;101988.13;;;9.49;100.00
41862;BME280;27537;57.134;-2.136;2023-01-25T03:53:27;101916.19;;;9.19;100.00
41862;BME280;27537;57.134;-2.136;2023-01-25T03:55:57;101973.22;;;9.56;100.00
41862;BME280;27537;57.134;-2.136;2023-01-25T03:58:25;101977.72;;;9.42;100.00
41862;BME280;27537;57.134;-2.136;2023-01-25T04:00:57;101969.13;;;9.35;100.00
41862;BME280;27537;57.134;-2.136;2023-01-25T04:03:24;101924.91;;;9.18;100.00
41862;BME280;27537;57.134;-2.136;2023-01-25T04:05:52;101957.75;;;9.39;100.00
41862;BME280;27537;57.134;-2.136;2023-01-25T04:08:19;101881.75;;;8.88;100.00
41862;BME280;27537;57.134;-2.136;2023-01-25T04:10:50;101960.38;;;9.38;100.00
41862;BME280;27537;57.134;-2.136;2023-01-25T04:13:20;101931.78;;;9.25;100.00
41862;BME280;27537;57.134;-2.136;2023-01-25T04:15:47;101921.34;;;9.22;100.00
41862;BME280;27537;57.134;-2.136;2023-01-25T04:18:14;101948.94;;;9.45;100.00
41862;BME280;27537;57.134;-2.136;2023-01-25T04:20:41;101953.19;;;9.54;100.00
41862;BME280;27537;57.134;-2.136;2023-01-25T04:23:09;101935.78;;;9.53;100.00
41862;BME280;27537;57.134;-2.136;2023-01-25T04:25:36;101920.19;;;9.45;100.00
41862;BME280;27537;57.134;-2.136;2023-01-25T04:28:03;101914.91;;;9.49;100.00
41862;BME280;27537;57.134;-2.136;2023-01-25T04:30:30;101938.13;;;9.71;100.00
41862;BME280;27537;57.134;-2.136;2023-01-25T04:33:02;101908.69;;;9.58;100.00
41862;BME280;27537;57.134;-2.136;2023-01-25T04:35:30;101878.53;;;9.32;100.00
41862;BME280;27537;57.134;-2.136;2023-01-25T04:37:58;101937.84;;;9.89;100.00
41862;BME280;27537;57.134;-2.136;2023-01-25T04:40:25;101916.31;;;9.72;100.00
41862;BME280;27537;57.134;-2.136;2023-01-25T04:42:52;101896.28;;;9.69;100.00
41862;BME280;27537;57.134;-2.136;2023-01-25T04:45:19;101905.78;;;9.77;100.00
41862;BME280;27537;57.134;-2.136;2023-01-25T04:47:46;101891.84;;;9.76;100.00
41862;BME280;27537;57.134;-2.136;2023-01-25T04:50:13;101879.84;;;9.61;100.00
41862;BME280;27537;57.134;-2.136;2023-01-25T04:52:40;101878.06;;;9.65;100.00
41862;BME280;27537;57.134;-2.136;2023-01-25T04:55:07;101882.19;;;9.80;100.00
41862;BME280;27537;57.134;-2.136;2023-01-25T04:57:34;101859.75;;;9.65;100.00
41862;BME280;27537;57.134;-2.136;2023-01-25T05:00:01;101865.84;;;9.67;100.00
41862;BME280;27537;57.134;-2.136;2023-01-25T05:02:29;101840.69;;;9.60;100.00
41862;BME280;27537;57.134;-2.136;2023-01-25T05:04:55;101877.66;;;9.89;100.00
41862;BME280;27537;57.134;-2.136;2023-01-25T05:07:22;101872.63;;;9.77;100.00
41862;BME280;27537;57.134;-2.136;2023-01-25T05:09:49;101857.84;;;9.76;100.00
41862;BME280;27537;57.134;-2.136;2023-01-25T05:12:16;101833.69;;;9.60;100.00
41862;BME280;27537;57.134;-2.136;2023-01-25T05:14:42;101870.06;;;9.76;100.00
41862;BME280;27537;57.134;-2.136;2023-01-25T05:17:09;101890.63;;;9.99;100.00
41862;BME280;27537;57.134;-2.136;2023-01-25T05:19:36;101851.78;;;9.74;100.00
41862;BME280;27537;57.134;-2.136;2023-01-25T05:22:03;101837.09;;;9.65;100.00
41862;BME280;27537;57.134;-2.136;2023-01-25T05:24:34;101866.53;;;9.78;100.00
41862;BME280;27537;57.134;-2.136;2023-01-25T05:27:01;101874.19;;;9.89;100.00
41862;BME280;27537;57.134;-2.136;2023-01-25T05:29:39;101846.72;;;9.63;100.00
41862;BME280;27537;57.134;-2.136;2023-01-25T05:32:08;101878.47;;;9.93;100.00
41862;BME280;27537;57.134;-2.136;2023-01-25T05:34:36;101844.91;;;9.67;100.00
41862;BME280;27537;57.134;-2.136;2023-01-25T05:37:05;101863.06;;;9.76;100.00
41862;BME280;27537;57.134;-2.136;2023-01-25T05:39:32;101867.28;;;9.86;100.00
41862;BME280;27537;57.134;-2.136;2023-01-25T05:41:59;101850.66;;;9.89;100.00
41862;BME280;27537;57.134;-2.136;2023-01-25T05:44:26;101849.97;;;9.78;100.00
41862;BME280;27537;57.134;-2.136;2023-01-25T05:46:53;101817.22;;;9.55;100.00
41862;BME280;27537;57.134;-2.136;2023-01-25T05:49:20;101849.84;;;9.84;100.00
41862;BME280;27537;57.134;-2.136;2023-01-25T05:51:47;101837.06;;;9.67;100.00
41862;BME280;27537;57.134;-2.136;2023-01-25T05:54:15;101762.69;;;9.32;100.00
41862;BME280;27537;57.134;-2.136;2023-01-25T05:56:43;101836.97;;;9.72;100.00
41862;BME280;27537;57.134;-2.136;2023-01-25T05:59:10;101822.25;;;9.67;100.00
41862;BME280;27537;57.134;-2.136;2023-01-25T06:01:38;101850.88;;;9.74;100.00
41862;BME280;27537;57.134;-2.136;2023-01-25T06:04:05;101808.41;;;9.59;100.00
41862;BME280;27537;57.134;-2.136;2023-01-25T06:06:32;101795.44;;;9.55;100.00
41862;BME280;27537;57.134;-2.136;2023-01-25T06:09:00;101804.78;;;9.69;100.00
41862;BME280;27537;57.134;-2.136;2023-01-25T06:11:26;101794.66;;;9.49;100.00
41862;BME280;27537;57.134;-2.136;2023-01-25T06:13:53;101822.19;;;9.72;100.00
41862;BME280;27537;57.134;-2.136;2023-01-25T06:16:20;101798.94;;;9.52;100.00
41862;BME280;27537;57.134;-2.136;2023-01-25T06:18:47;101770.59;;;9.26;100.00
41862;BME280;27537;57.134;-2.136;2023-01-25T06:21:13;101753.47;;;9.08;100.00
41862;BME280;27537;57.134;-2.136;2023-01-25T06:23:40;101794.00;;;9.35;100.00
41862;BME280;27537;57.134;-2.136;2023-01-25T06:26:14;101835.41;;;9.61;100.00
41862;BME280;27537;57.134;-2.136;2023-01-25T06:28:41;101755.16;;;9.12;100.00
41862;BME280;27537;57.134;-2.136;2023-01-25T06:31:14;101818.25;;;9.43;100.00
41862;BME280;27537;57.134;-2.136;2023-01-25T06:33:41;101834.72;;;9.50;100.00
41862;BME280;27537;57.134;-2.136;2023-01-25T06:36:11;101831.22;;;9.51;100.00
41862;BME280;27537;57.134;-2.136;2023-01-25T06:38:38;101825.13;;;9.50;100.00
41862;BME280;27537;57.134;-2.136;2023-01-25T06:41:06;101820.16;;;9.34;100.00
41862;BME280;27537;57.134;-2.136;2023-01-25T06:43:35;101823.69;;;9.29;100.00
41862;BME280;27537;57.134;-2.136;2023-01-25T06:46:02;101818.38;;;9.37;100.00
41862;BME280;27537;57.134;-2.136;2023-01-25T06:48:30;101813.28;;;9.28;100.00
41862;BME280;27537;57.134;-2.136;2023-01-25T06:50:58;101811.59;;;9.24;100.00
41862;BME280;27537;57.134;-2.136;2023-01-25T06:53:26;101815.13;;;9.21;100.00
41862;BME280;27537;57.134;-2.136;2023-01-25T06:55:56;101818.56;;;9.23;100.00
41862;BME280;27537;57.134;-2.136;2023-01-25T06:58:23;101820.31;;;9.24;100.00
41862;BME280;27537;57.134;-2.136;2023-01-25T07:00:50;101810.72;;;9.25;100.00
41862;BME280;27537;57.134;-2.136;2023-01-25T07:03:17;101811.59;;;9.22;100.00
41862;BME280;27537;57.134;-2.136;2023-01-25T07:05:43;101807.44;;;9.10;100.00
41862;BME280;27537;57.134;-2.136;2023-01-25T07:08:10;101812.56;;;9.15;100.00
41862;BME280;27537;57.134;-2.136;2023-01-25T07:10:37;101814.25;;;9.21;100.00
41862;BME280;27537;57.134;-2.136;2023-01-25T07:13:03;101808.13;;;9.23;100.00
41862;BME280;27537;57.134;-2.136;2023-01-25T07:15:30;101797.63;;;9.25;100.00
41862;BME280;27537;57.134;-2.136;2023-01-25T07:17:56;101801.22;;;9.18;100.00
41862;BME280;27537;57.134;-2.136;2023-01-25T07:20:40;101811.75;;;9.13;100.00
41862;BME280;27537;57.134;-2.136;2023-01-25T07:23:07;101815.41;;;9.01;100.00
41862;BME280;27537;57.134;-2.136;2023-01-25T07:25:34;101821.66;;;8.88;100.00
41862;BME280;27537;57.134;-2.136;2023-01-25T07:28:01;101821.69;;;8.86;100.00
41862;BME280;27537;57.134;-2.136;2023-01-25T07:30:27;101828.50;;;8.98;100.00
41862;BME280;27537;57.134;-2.136;2023-01-25T07:32:54;101828.41;;;9.04;100.00
41862;BME280;27537;57.134;-2.136;2023-01-25T07:35:21;101828.28;;;9.13;100.00
41862;BME280;27537;57.134;-2.136;2023-01-25T07:37:47;101834.34;;;9.17;100.00
41862;BME280;27537;57.134;-2.136;2023-01-25T07:40:14;101831.72;;;9.17;100.00
41862;BME280;27537;57.134;-2.136;2023-01-25T07:42:41;101833.44;;;9.18;100.00
41862;BME280;27537;57.134;-2.136;2023-01-25T07:45:07;101835.09;;;9.24;100.00
41862;BME280;27537;57.134;-2.136;2023-01-25T07:47:34;101836.81;;;9.26;100.00
41862;BME280;27537;57.134;-2.136;2023-01-25T07:50:03;101843.69;;;9.32;100.00
41862;BME280;27537;57.134;-2.136;2023-01-25T07:52:29;101851.41;;;9.40;100.00
41862;BME280;27537;57.134;-2.136;2023-01-25T07:54:56;101849.63;;;9.43;100.00
41862;BME280;27537;57.134;-2.136;2023-01-25T07:57:23;101844.34;;;9.48;100.00
41862;BME280;27537;57.134;-2.136;2023-01-25T07:59:50;101852.19;;;9.48;100.00
41862;BME280;27537;57.134;-2.136;2023-01-25T08:02:17;101850.34;;;9.55;100.00
41862;BME280;27537;57.134;-2.136;2023-01-25T08:04:43;101843.31;;;9.58;100.00
41862;BME280;27537;57.134;-2.136;2023-01-25T08:07:11;101848.47;;;9.61;100.00
41862;BME280;27537;57.134;-2.136;2023-01-25T08:09:38;101839.94;;;9.52;100.00
41862;BME280;27537;57.134;-2.136;2023-01-25T08:12:05;101844.34;;;9.48;100.00
41862;BME280;27537;57.134;-2.136;2023-01-25T08:14:33;101851.31;;;9.47;100.00
41862;BME280;27537;57.134;-2.136;2023-01-25T08:17:00;101861.94;;;9.37;100.00
41862;BME280;27537;57.134;-2.136;2023-01-25T08:19:27;101862.72;;;9.42;100.00
41862;BME280;27537;57.134;-2.136;2023-01-25T08:21:53;101869.53;;;9.54;100.00
41862;BME280;27537;57.134;-2.136;2023-01-25T08:24:20;101874.59;;;9.64;100.00
41862;BME280;27537;57.134;-2.136;2023-01-25T08:26:49;101871.69;;;9.83;100.00
41862;BME280;27537;57.134;-2.136;2023-01-25T08:29:16;101876.97;;;9.80;100.00
41862;BME280;27537;57.134;-2.136;2023-01-25T08:31:43;101875.34;;;9.73;100.00
41862;BME280;27537;57.134;-2.136;2023-01-25T08:34:10;101877.75;;;9.85;100.00
41862;BME280;27537;57.134;-2.136;2023-01-25T08:36:37;101870.56;;;9.98;100.00
41862;BME280;27537;57.134;-2.136;2023-01-25T08:39:05;101872.47;;;9.88;100.00
41862;BME280;27537;57.134;-2.136;2023-01-25T08:41:32;101887.22;;;9.94;100.00
41862;BME280;27537;57.134;-2.136;2023-01-25T08:43:59;101887.03;;;10.04;100.00
41862;BME280;27537;57.134;-2.136;2023-01-25T08:46:27;101884.38;;;10.07;100.00
41862;BME280;27537;57.134;-2.136;2023-01-25T08:48:57;101886.16;;;10.04;100.00
41862;BME280;27537;57.134;-2.136;2023-01-25T08:51:24;101888.84;;;9.99;100.00
41862;BME280;27537;57.134;-2.136;2023-01-25T08:53:50;101876.66;;;9.98;100.00
41862;BME280;27537;57.134;-2.136;2023-01-25T08:56:17;101874.88;;;10.00;100.00
41862;BME280;27537;57.134;-2.136;2023-01-25T08:58:45;101866.28;;;9.94;100.00
41862;BME280;27537;57.134;-2.136;2023-01-25T09:01:13;101848.16;;;9.83;100.00
41862;BME280;27537;57.134;-2.136;2023-01-25T09:03:41;101853.19;;;9.95;100.00
41862;BME280;27537;57.134;-2.136;2023-01-25T09:06:09;101859.31;;;9.91;100.00
41862;BME280;27537;57.134;-2.136;2023-01-25T09:08:36;101858.09;;;9.59;100.00
41862;BME280;27537;57.134;-2.136;2023-01-25T09:11:08;101843.34;;;9.57;100.00
41862;BME280;27537;57.134;-2.136;2023-01-25T09:13:35;101837.94;;;9.67;100.00
41862;BME280;27537;57.134;-2.136;2023-01-25T09:16:06;101842.19;;;9.73;100.00
41862;BME280;27537;57.134;-2.136;2023-01-25T09:18:34;101862.59;;;9.51;100.00
41862;BME280;27537;57.134;-2.136;2023-01-25T09:21:08;101865.97;;;9.58;100.00
41862;BME280;27537;57.134;-2.136;2023-01-25T09:23:35;101872.88;;;9.63;100.00
41862;BME280;27537;57.134;-2.136;2023-01-25T09:26:22;101861.69;;;9.52;100.00
41862;BME280;27537;57.134;-2.136;2023-01-25T09:28:49;101864.81;;;9.18;100.00
41862;BME280;27537;57.134;-2.136;2023-01-25T09:31:16;101861.13;;;9.33;100.00
41862;BME280;27537;57.134;-2.136;2023-01-25T09:33:49;101857.41;;;9.48;100.00
41862;BME280;27537;57.134;-2.136;2023-01-25T09:36:16;101874.91;;;9.43;100.00
41862;BME280;27537;57.134;-2.136;2023-01-25T09:38:42;101874.22;;;9.31;100.00
41862;BME280;27537;57.134;-2.136;2023-01-25T09:41:21;101875.31;;;9.13;100.00
41862;BME280;27537;57.134;-2.136;2023-01-25T09:44:03;101877.88;;;9.17;100.00
41862;BME280;27537;57.134;-2.136;2023-01-25T09:46:41;101868.81;;;9.42;100.00
41862;BME280;27537;57.134;-2.136;2023-01-25T09:54:23;101875.06;;;9.34;100.00
41862;BME280;27537;57.134;-2.136;2023-01-25T09:56:53;101884.81;;;9.21;100.00
41862;BME280;27537;57.134;-2.136;2023-01-25T09:59:21;101888.91;;;9.39;100.00
41862;BME280;27537;57.134;-2.136;2023-01-25T10:04:18;101898.63;;;9.27;100.00
41862;BME280;27537;57.134;-2.136;2023-01-25T10:06:55;101902.03;;;9.36;100.00
41862;BME280;27537;57.134;-2.136;2023-01-25T10:12:03;101903.50;;;9.55;100.00
41862;BME280;27537;57.134;-2.136;2023-01-25T10:14:31;101901.88;;;9.46;100.00
41862;BME280;27537;57.134;-2.136;2023-01-25T10:17:03;101901.91;;;9.42;100.00
41862;BME280;27537;57.134;-2.136;2023-01-25T10:22:11;101915.22;;;9.26;100.00
41862;BME280;27537;57.134;-2.136;2023-01-25T10:24:43;101926.34;;;9.42;100.00
41862;BME280;27537;57.134;-2.136;2023-01-25T10:29:40;101938.59;;;9.39;100.00
41862;BME280;27537;57.134;-2.136;2023-01-25T10:32:28;101938.97;;;9.08;100.00
41862;BME280;27537;57.134;-2.136;2023-01-25T10:34:54;101940.59;;;9.18;100.00
41862;BME280;27537;57.134;-2.136;2023-01-25T10:37:26;101948.66;;;9.00;100.00
41862;BME280;27537;57.134;-2.136;2023-01-25T10:42:28;101967.56;;;9.19;100.00
41862;BME280;27537;57.134;-2.136;2023-01-25T10:44:55;101974.69;;;9.06;100.00
41862;BME280;27537;57.134;-2.136;2023-01-25T10:47:28;101969.44;;;9.09;100.00
41862;BME280;27537;57.134;-2.136;2023-01-25T10:49:57;101973.97;;;8.93;100.00
41862;BME280;27537;57.134;-2.136;2023-01-25T10:52:25;101972.94;;;9.06;100.00
41862;BME280;27537;57.134;-2.136;2023-01-25T10:57:40;101986.19;;;8.89;100.00
41862;BME280;27537;57.134;-2.136;2023-01-25T11:00:18;101988.03;;;8.80;100.00
41862;BME280;27537;57.134;-2.136;2023-01-25T11:02:46;101995.97;;;8.67;100.00
41862;BME280;27537;57.134;-2.136;2023-01-25T11:30:39;101991.28;;;9.03;100.00
41862;BME280;27537;57.134;-2.136;2023-01-25T11:33:10;101969.47;;;9.06;100.00
41862;BME280;27537;57.134;-2.136;2023-01-25T11:35:40;101970.09;;;9.26;100.00
41862;BME280;27537;57.134;-2.136;2023-01-25T11:38:15;101980.44;;;9.37;100.00
41862;BME280;27537;57.134;-2.136;2023-01-25T11:40:48;101974.53;;;9.20;100.00
41862;BME280;27537;57.134;-2.136;2023-01-25T11:46:26;101965.69;;;9.31;100.00
41862;BME280;27537;57.134;-2.136;2023-01-25T12:02:49;101947.69;;;9.08;100.00
41862;BME280;27537;57.134;-2.136;2023-01-25T12:07:54;101956.47;;;9.01;100.00
41862;BME280;27537;57.134;-2.136;2023-01-25T12:11:11;101959.00;;;9.07;100.00
41862;BME280;27537;57.134;-2.136;2023-01-25T12:16:28;101965.06;;;9.09;100.00
41862;BME280;27537;57.134;-2.136;2023-01-25T12:21:28;101956.44;;;9.03;100.00
41862;BME280;27537;57.134;-2.136;2023-01-25T12:24:21;101964.94;;;9.20;100.00
41862;BME280;27537;57.134;-2.136;2023-01-25T12:26:55;101969.38;;;9.13;100.00
41862;BME280;27537;57.134;-2.136;2023-01-25T12:29:36;101968.66;;;9.01;100.00
41862;BME280;27537;57.134;-2.136;2023-01-25T12:34:34;101977.44;;;8.95;100.00
41862;BME280;27537;57.134;-2.136;2023-01-25T12:37:16;101986.81;;;9.13;100.00
41862;BME280;27537;57.134;-2.136;2023-01-25T12:39:45;101972.91;;;9.09;100.00
41862;BME280;27537;57.134;-2.136;2023-01-25T12:42:16;101975.94;;;9.45;100.00
41862;BME280;27537;57.134;-2.136;2023-01-25T12:44:48;101986.34;;;9.50;100.00
41862;BME280;27537;57.134;-2.136;2023-01-25T12:53:40;101976.53;;;9.67;100.00
41862;BME280;27537;57.134;-2.136;2023-01-25T12:55:34;101976.00;;;9.44;100.00
41862;BME280;27537;57.134;-2.136;2023-01-25T13:00:36;101965.75;;;9.25;100.00
41862;BME280;27537;57.134;-2.136;2023-01-25T13:05:59;101967.34;;;9.39;100.00
41862;BME280;27537;57.134;-2.136;2023-01-25T13:08:38;101958.88;;;9.18;100.00
41862;BME280;27537;57.134;-2.136;2023-01-25T13:11:12;101959.50;;;9.39;100.00
41862;BME280;27537;57.134;-2.136;2023-01-25T13:13:41;101968.47;;;9.16;100.00
41862;BME280;27537;57.134;-2.136;2023-01-25T13:16:30;101950.00;;;9.33;100.00
41862;BME280;27537;57.134;-2.136;2023-01-25T13:18:59;101942.06;;;9.39;100.00
41862;BME280;27537;57.134;-2.136;2023-01-25T13:26:38;101939.56;;;9.31;100.00
41862;BME280;27537;57.134;-2.136;2023-01-25T13:31:56;101946.88;;;9.03;100.00
41862;BME280;27537;57.134;-2.136;2023-01-25T13:37:02;101944.53;;;9.48;100.00
41862;BME280;27537;57.134;-2.136;2023-01-25T13:42:00;101949.06;;;9.36;100.00
41862;BME280;27537;57.134;-2.136;2023-01-25T13:44:27;101947.22;;;9.44;100.00
41862;BME280;27537;57.134;-2.136;2023-01-25T13:46:58;101942.16;;;9.33;100.00
41862;BME280;27537;57.134;-2.136;2023-01-25T13:49:33;101938.25;;;9.63;100.00
41862;BME280;27537;57.134;-2.136;2023-01-25T13:52:02;101929.09;;;9.31;100.00
41862;BME280;27537;57.134;-2.136;2023-01-25T13:54:30;101931.75;;;9.28;100.00
41862;BME280;27537;57.134;-2.136;2023-01-25T13:57:03;101940.41;;;9.34;100.00
41862;BME280;27537;57.134;-2.136;2023-01-25T13:59:30;101946.34;;;9.43;100.00
41862;BME280;27537;57.134;-2.136;2023-01-25T14:01:57;101943.78;;;9.40;100.00
41862;BME280;27537;57.134;-2.136;2023-01-25T14:04:24;101947.84;;;9.61;100.00
41862;BME280;27537;57.134;-2.136;2023-01-25T14:06:55;101944.47;;;9.55;100.00
41862;BME280;27537;57.134;-2.136;2023-01-25T14:09:23;101936.53;;;9.61;100.00
41862;BME280;27537;57.134;-2.136;2023-01-25T14:14:23;101952.28;;;9.56;100.00
41862;BME280;27537;57.134;-2.136;2023-01-25T14:19:29;101948.47;;;9.13;100.00
41862;BME280;27537;57.134;-2.136;2023-01-25T14:24:42;101957.91;;;9.25;100.00
41862;BME280;27537;57.134;-2.136;2023-01-25T14:27:11;101958.72;;;9.32;100.00
41862;BME280;27537;57.134;-2.136;2023-01-25T14:29:39;101967.63;;;9.17;100.00
41862;BME280;27537;57.134;-2.136;2023-01-25T14:32:12;101966.59;;;9.26;100.00
41862;BME280;27537;57.134;-2.136;2023-01-25T14:34:39;101960.53;;;9.24;100.00
41862;BME280;27537;57.134;-2.136;2023-01-25T14:37:13;101963.09;;;9.30;100.00
41862;BME280;27537;57.134;-2.136;2023-01-25T14:39:41;101970.16;;;9.20;100.00